sensor_id;sensor_type;location;lat;lon;timestamp;P1;durP1;ratioP1;P2;durP2;ratioP2
31694;SDS011;18289;51.330;4.946;2023-02-24T00:01:24;19.08;;;4.13;;
31694;SDS011;18289;51.330;4.946;2023-02-24T00:03:54;17.33;;;4.18;;
31694;SDS011;18289;51.330;4.946;2023-02-24T00:06:24;21.50;;;4.15;;
31694;SDS011;18289;51.330;4.946;2023-02-24T00:09:19;16.85;;;3.15;;
31694;SDS011;18289;51.330;4.946;2023-02-24T00:11:56;16.33;;;4.53;;
31694;SDS011;18289;51.330;4.946;2023-02-24T00:14:34;19.25;;;3.67;;
31694;SDS011;18289;51.330;4.946;2023-02-24T00:17:01;12.65;;;3.90;;
31694;SDS011;18289;51.330;4.946;2023-02-24T00:19:28;24.58;;;5.68;;
31694;SDS011;18289;51.330;4.946;2023-02-24T00:21:58;17.00;;;4.03;;
31694;SDS011;18289;51.330;4.946;2023-02-24T00:24:25;17.40;;;4.03;;
31694;SDS011;18289;51.330;4.946;2023-02-24T00:26:52;21.75;;;4.45;;
31694;SDS011;18289;51.330;4.946;2023-02-24T00:29:20;23.80;;;4.88;;
31694;SDS011;18289;51.330;4.946;2023-02-24T00:31:50;23.48;;;4.53;;
31694;SDS011;18289;51.330;4.946;2023-02-24T00:34:30;20.67;;;4.25;;
31694;SDS011;18289;51.330;4.946;2023-02-24T00:36:59;19.08;;;4.75;;
31694;SDS011;18289;51.330;4.946;2023-02-24T00:39:26;24.63;;;5.72;;
31694;SDS011;18289;51.330;4.946;2023-02-24T00:41:54;27.08;;;8.30;;
31694;SDS011;18289;51.330;4.946;2023-02-24T00:44:28;24.50;;;5.18;;
31694;SDS011;18289;51.330;4.946;2023-02-24T00:46:57;18.95;;;4.50;;
31694;SDS011;18289;51.330;4.946;2023-02-24T00:49:29;23.67;;;4.68;;
31694;SDS011;18289;51.330;4.946;2023-02-24T00:51:56;27.38;;;5.18;;
31694;SDS011;18289;51.330;4.946;2023-02-24T00:54:22;24.60;;;5.00;;
31694;SDS011;18289;51.330;4.946;2023-02-24T00:56:51;19.63;;;4.97;;
31694;SDS011;18289;51.330;4.946;2023-02-24T00:59:18;17.25;;;5.65;;
31694;SDS011;18289;51.330;4.946;2023-02-24T01:01:44;21.48;;;5.93;;
31694;SDS011;18289;51.330;4.946;2023-02-24T01:04:10;26.02;;;5.95;;
31694;SDS011;18289;51.330;4.946;2023-02-24T01:06:39;16.40;;;4.28;;
31694;SDS011;18289;51.330;4.946;2023-02-24T01:11:36;14.13;;;3.90;;
31694;SDS011;18289;51.330;4.946;2023-02-24T01:14:22;19.30;;;4.63;;
31694;SDS011;18289;51.330;4.946;2023-02-24T01:19:17;19.77;;;4.20;;
31694;SDS011;18289;51.330;4.946;2023-02-24T01:21:45;23.38;;;4.97;;
31694;SDS011;18289;51.330;4.946;2023-02-24T01:24:12;22.45;;;6.05;;
31694;SDS011;18289;51.330;4.946;2023-02-24T01:26:39;22.92;;;4.25;;
31694;SDS011;18289;51.330;4.946;2023-02-24T01:29:06;16.08;;;4.15;;
31694;SDS011;18289;51.330;4.946;2023-02-24T01:31:35;17.15;;;4.30;;
31694;SDS011;18289;51.330;4.946;2023-02-24T01:34:02;19.48;;;5.05;;
31694;SDS011;18289;51.330;4.946;2023-02-24T01:36:30;12.55;;;3.75;;
31694;SDS011;18289;51.330;4.946;2023-02-24T01:38:57;11.38;;;3.75;;
31694;SDS011;18289;51.330;4.946;2023-02-24T01:41:24;18.35;;;4.13;;
31694;SDS011;18289;51.330;4.946;2023-02-24T01:44:02;16.35;;;4.53;;
31694;SDS011;18289;51.330;4.946;2023-02-24T01:46:36;13.07;;;3.90;;
31694;SDS011;18289;51.330;4.946;2023-02-24T01:54:35;15.43;;;3.75;;
31694;SDS011;18289;51.330;4.946;2023-02-24T01:57:12;13.63;;;4.30;;
31694;SDS011;18289;51.330;4.946;2023-02-24T01:59:43;16.15;;;3.50;;
31694;SDS011;18289;51.330;4.946;2023-02-24T02:02:11;15.60;;;3.83;;
31694;SDS011;18289;51.330;4.946;2023-02-24T02:04:43;14.68;;;3.78;;
31694;SDS011;18289;51.330;4.946;2023-02-24T02:07:14;15.93;;;3.45;;
31694;SDS011;18289;51.330;4.946;2023-02-24T02:09:42;9.82;;;4.65;;
31694;SDS011;18289;51.330;4.946;2023-02-24T02:12:11;16.55;;;3.85;;
31694;SDS011;18289;51.330;4.946;2023-02-24T02:14:38;11.15;;;3.60;;
31694;SDS011;18289;51.330;4.946;2023-02-24T02:28:13;14.10;;;4.28;;
31694;SDS011;18289;51.330;4.946;2023-02-24T02:36:32;12.32;;;3.92;;
31694;SDS011;18289;51.330;4.946;2023-02-24T02:39:11;6.97;;;3.40;;
31694;SDS011;18289;51.330;4.946;2023-02-24T02:44:51;12.95;;;4.28;;
31694;SDS011;18289;51.330;4.946;2023-02-24T02:49:54;18.13;;;4.68;;
31694;SDS011;18289;51.330;4.946;2023-02-24T02:55:45;13.98;;;5.32;;
31694;SDS011;18289;51.330;4.946;2023-02-24T02:58:18;17.00;;;4.55;;
31694;SDS011;18289;51.330;4.946;2023-02-24T03:00:51;14.40;;;4.38;;
31694;SDS011;18289;51.330;4.946;2023-02-24T03:03:27;12.20;;;4.80;;
31694;SDS011;18289;51.330;4.946;2023-02-24T03:08:27;13.77;;;3.97;;
31694;SDS011;18289;51.330;4.946;2023-02-24T03:10:58;13.25;;;4.22;;
31694;SDS011;18289;51.330;4.946;2023-02-24T03:13:27;14.00;;;3.83;;
31694;SDS011;18289;51.330;4.946;2023-02-24T03:15:58;11.63;;;3.00;;
31694;SDS011;18289;51.330;4.946;2023-02-24T03:18:27;18.35;;;5.05;;
31694;SDS011;18289;51.330;4.946;2023-02-24T03:21:06;12.02;;;3.80;;
31694;SDS011;18289;51.330;4.946;2023-02-24T03:23:38;11.60;;;3.97;;
31694;SDS011;18289;51.330;4.946;2023-02-24T03:26:24;11.40;;;3.65;;
31694;SDS011;18289;51.330;4.946;2023-02-24T03:34:22;14.55;;;3.95;;
31694;SDS011;18289;51.330;4.946;2023-02-24T03:36:56;9.70;;;3.38;;
31694;SDS011;18289;51.330;4.946;2023-02-24T03:39:22;10.48;;;3.92;;
31694;SDS011;18289;51.330;4.946;2023-02-24T03:42:22;12.07;;;3.92;;
31694;SDS011;18289;51.330;4.946;2023-02-24T03:44:43;13.25;;;3.92;;
31694;SDS011;18289;51.330;4.946;2023-02-24T03:47:09;12.55;;;4.45;;
31694;SDS011;18289;51.330;4.946;2023-02-24T03:49:35;22.95;;;5.13;;
31694;SDS011;18289;51.330;4.946;2023-02-24T04:02:46;12.40;;;3.72;;
31694;SDS011;18289;51.330;4.946;2023-02-24T04:05:16;15.57;;;4.10;;
31694;SDS011;18289;51.330;4.946;2023-02-24T04:15:31;10.93;;;3.67;;
31694;SDS011;18289;51.330;4.946;2023-02-24T04:18:03;15.05;;;3.95;;
31694;SDS011;18289;51.330;4.946;2023-02-24T04:20:33;13.93;;;4.00;;
31694;SDS011;18289;51.330;4.946;2023-02-24T04:23:02;16.95;;;3.95;;
31694;SDS011;18289;51.330;4.946;2023-02-24T04:25:34;15.07;;;5.20;;
31694;SDS011;18289;51.330;4.946;2023-02-24T04:28:01;13.30;;;3.85;;
31694;SDS011;18289;51.330;4.946;2023-02-24T04:30:29;9.32;;;3.63;;
31694;SDS011;18289;51.330;4.946;2023-02-24T04:32:58;14.48;;;3.63;;
31694;SDS011;18289;51.330;4.946;2023-02-24T04:35:24;18.15;;;4.68;;
31694;SDS011;18289;51.330;4.946;2023-02-24T04:37:51;10.40;;;3.90;;
31694;SDS011;18289;51.330;4.946;2023-02-24T04:40:17;14.07;;;3.70;;
31694;SDS011;18289;51.330;4.946;2023-02-24T04:42:46;15.65;;;4.45;;
31694;SDS011;18289;51.330;4.946;2023-02-24T04:45:25;11.52;;;3.35;;
31694;SDS011;18289;51.330;4.946;2023-02-24T04:47:54;14.80;;;3.22;;
31694;SDS011;18289;51.330;4.946;2023-02-24T04:50:25;17.70;;;4.07;;
31694;SDS011;18289;51.330;4.946;2023-02-24T04:52:57;9.45;;;3.20;;
31694;SDS011;18289;51.330;4.946;2023-02-24T04:55:26;9.60;;;3.47;;
31694;SDS011;18289;51.330;4.946;2023-02-24T04:57:56;9.25;;;3.67;;
31694;SDS011;18289;51.330;4.946;2023-02-24T05:00:21;8.27;;;3.08;;
31694;SDS011;18289;51.330;4.946;2023-02-24T05:02:51;12.80;;;3.40;;
31694;SDS011;18289;51.330;4.946;2023-02-24T05:05:18;8.90;;;3.20;;
31694;SDS011;18289;51.330;4.946;2023-02-24T05:07:54;10.27;;;4.13;;
31694;SDS011;18289;51.330;4.946;2023-02-24T05:10:27;15.30;;;4.15;;
31694;SDS011;18289;51.330;4.946;2023-02-24T05:12:54;12.07;;;3.25;;
31694;SDS011;18289;51.330;4.946;2023-02-24T05:18:00;10.93;;;3.33;;
31694;SDS011;18289;51.330;4.946;2023-02-24T05:20:31;13.20;;;3.67;;
31694;SDS011;18289;51.330;4.946;2023-02-24T05:23:26;13.90;;;4.93;;
31694;SDS011;18289;51.330;4.946;2023-02-24T05:25:53;11.73;;;3.85;;
31694;SDS011;18289;51.330;4.946;2023-02-24T05:28:22;14.88;;;5.35;;
31694;SDS011;18289;51.330;4.946;2023-02-24T05:33:14;9.98;;;3.28;;
31694;SDS011;18289;51.330;4.946;2023-02-24T05:35:45;12.55;;;3.88;;
31694;SDS011;18289;51.330;4.946;2023-02-24T05:38:17;12.25;;;3.78;;
31694;SDS011;18289;51.330;4.946;2023-02-24T05:40:47;11.57;;;3.83;;
31694;SDS011;18289;51.330;4.946;2023-02-24T05:43:13;14.57;;;3.85;;
31694;SDS011;18289;51.330;4.946;2023-02-24T05:45:43;13.60;;;3.40;;
31694;SDS011;18289;51.330;4.946;2023-02-24T05:48:10;11.95;;;3.42;;
31694;SDS011;18289;51.330;4.946;2023-02-24T05:50:39;11.27;;;3.10;;
31694;SDS011;18289;51.330;4.946;2023-02-24T05:53:05;13.60;;;3.65;;
31694;SDS011;18289;51.330;4.946;2023-02-24T05:55:33;9.20;;;3.35;;
31694;SDS011;18289;51.330;4.946;2023-02-24T05:58:00;12.20;;;4.07;;
31694;SDS011;18289;51.330;4.946;2023-02-24T06:00:31;12.15;;;3.53;;
31694;SDS011;18289;51.330;4.946;2023-02-24T06:02:57;11.63;;;3.45;;
31694;SDS011;18289;51.330;4.946;2023-02-24T06:05:32;10.85;;;3.10;;
31694;SDS011;18289;51.330;4.946;2023-02-24T06:07:59;8.07;;;3.40;;
31694;SDS011;18289;51.330;4.946;2023-02-24T06:10:29;11.88;;;3.33;;
31694;SDS011;18289;51.330;4.946;2023-02-24T06:12:59;19.20;;;5.65;;
31694;SDS011;18289;51.330;4.946;2023-02-24T06:15:26;10.07;;;3.28;;
31694;SDS011;18289;51.330;4.946;2023-02-24T06:17:52;8.02;;;3.10;;
31694;SDS011;18289;51.330;4.946;2023-02-24T06:20:23;9.90;;;3.65;;
31694;SDS011;18289;51.330;4.946;2023-02-24T06:22:50;10.63;;;3.15;;
31694;SDS011;18289;51.330;4.946;2023-02-24T06:25:20;8.13;;;3.67;;
31694;SDS011;18289;51.330;4.946;2023-02-24T06:27:49;9.25;;;3.58;;
31694;SDS011;18289;51.330;4.946;2023-02-24T06:30:18;13.77;;;3.28;;
31694;SDS011;18289;51.330;4.946;2023-02-24T06:32:46;14.85;;;3.50;;
31694;SDS011;18289;51.330;4.946;2023-02-24T06:35:12;12.05;;;4.05;;
31694;SDS011;18289;51.330;4.946;2023-02-24T06:37:38;14.13;;;3.35;;
31694;SDS011;18289;51.330;4.946;2023-02-24T06:40:05;11.60;;;4.70;;
31694;SDS011;18289;51.330;4.946;2023-02-24T06:42:44;14.27;;;3.58;;
31694;SDS011;18289;51.330;4.946;2023-02-24T06:45:18;11.38;;;3.72;;
31694;SDS011;18289;51.330;4.946;2023-02-24T06:47:44;10.07;;;3.63;;
31694;SDS011;18289;51.330;4.946;2023-02-24T06:50:12;12.30;;;4.15;;
31694;SDS011;18289;51.330;4.946;2023-02-24T06:52:39;10.25;;;4.00;;
31694;SDS011;18289;51.330;4.946;2023-02-24T06:55:05;14.15;;;3.65;;
31694;SDS011;18289;51.330;4.946;2023-02-24T06:57:49;11.13;;;4.57;;
31694;SDS011;18289;51.330;4.946;2023-02-24T07:00:21;10.15;;;3.42;;
31694;SDS011;18289;51.330;4.946;2023-02-24T07:03:04;13.38;;;4.30;;
31694;SDS011;18289;51.330;4.946;2023-02-24T07:05:48;13.65;;;3.17;;
31694;SDS011;18289;51.330;4.946;2023-02-24T07:08:36;13.23;;;3.97;;
31694;SDS011;18289;51.330;4.946;2023-02-24T07:11:02;15.90;;;3.78;;
31694;SDS011;18289;51.330;4.946;2023-02-24T07:13:30;12.80;;;4.57;;
31694;SDS011;18289;51.330;4.946;2023-02-24T07:15:58;14.20;;;4.50;;
31694;SDS011;18289;51.330;4.946;2023-02-24T07:18:30;11.18;;;4.32;;
31694;SDS011;18289;51.330;4.946;2023-02-24T07:21:00;10.63;;;3.42;;
31694;SDS011;18289;51.330;4.946;2023-02-24T07:23:29;10.27;;;3.70;;
31694;SDS011;18289;51.330;4.946;2023-02-24T07:25:55;11.13;;;3.58;;
31694;SDS011;18289;51.330;4.946;2023-02-24T07:28:24;13.47;;;3.93;;
31694;SDS011;18289;51.330;4.946;2023-02-24T07:30:49;14.43;;;4.97;;
31694;SDS011;18289;51.330;4.946;2023-02-24T07:33:16;6.13;;;4.18;;
31694;SDS011;18289;51.330;4.946;2023-02-24T07:35:48;12.60;;;4.32;;
31694;SDS011;18289;51.330;4.946;2023-02-24T07:38:15;12.35;;;3.45;;
31694;SDS011;18289;51.330;4.946;2023-02-24T07:40:43;13.87;;;4.00;;
31694;SDS011;18289;51.330;4.946;2023-02-24T07:43:11;13.18;;;4.28;;
31694;SDS011;18289;51.330;4.946;2023-02-24T07:45:37;13.95;;;4.45;;
31694;SDS011;18289;51.330;4.946;2023-02-24T07:48:02;10.18;;;3.95;;
31694;SDS011;18289;51.330;4.946;2023-02-24T07:50:28;14.20;;;4.30;;
31694;SDS011;18289;51.330;4.946;2023-02-24T07:52:56;16.70;;;4.25;;
31694;SDS011;18289;51.330;4.946;2023-02-24T07:55:23;16.58;;;4.28;;
31694;SDS011;18289;51.330;4.946;2023-02-24T07:57:55;10.50;;;4.55;;
31694;SDS011;18289;51.330;4.946;2023-02-24T08:00:21;10.98;;;3.30;;
31694;SDS011;18289;51.330;4.946;2023-02-24T08:02:53;12.48;;;3.92;;
31694;SDS011;18289;51.330;4.946;2023-02-24T08:05:19;17.65;;;5.10;;
31694;SDS011;18289;51.330;4.946;2023-02-24T08:07:46;15.88;;;4.72;;
31694;SDS011;18289;51.330;4.946;2023-02-24T08:10:17;12.10;;;4.22;;
31694;SDS011;18289;51.330;4.946;2023-02-24T08:12:50;8.88;;;4.00;;
31694;SDS011;18289;51.330;4.946;2023-02-24T08:15:22;13.48;;;4.05;;
31694;SDS011;18289;51.330;4.946;2023-02-24T08:17:50;14.15;;;4.30;;
31694;SDS011;18289;51.330;4.946;2023-02-24T08:20:17;9.60;;;3.42;;
31694;SDS011;18289;51.330;4.946;2023-02-24T08:22:44;11.40;;;4.68;;
31694;SDS011;18289;51.330;4.946;2023-02-24T08:25:16;12.88;;;3.92;;
31694;SDS011;18289;51.330;4.946;2023-02-24T08:27:59;14.50;;;4.63;;
31694;SDS011;18289;51.330;4.946;2023-02-24T08:30:30;15.10;;;5.15;;
31694;SDS011;18289;51.330;4.946;2023-02-24T08:33:03;11.20;;;3.97;;
31694;SDS011;18289;51.330;4.946;2023-02-24T08:35:34;10.75;;;3.20;;
31694;SDS011;18289;51.330;4.946;2023-02-24T08:38:03;14.25;;;3.28;;
31694;SDS011;18289;51.330;4.946;2023-02-24T08:40:38;9.95;;;3.03;;
31694;SDS011;18289;51.330;4.946;2023-02-24T08:43:18;10.25;;;3.10;;
31694;SDS011;18289;51.330;4.946;2023-02-24T08:48:41;12.00;;;3.80;;
31694;SDS011;18289;51.330;4.946;2023-02-24T08:51:10;11.35;;;3.50;;
31694;SDS011;18289;51.330;4.946;2023-02-24T08:53:39;10.02;;;3.42;;
31694;SDS011;18289;51.330;4.946;2023-02-24T08:56:07;8.60;;;4.00;;
31694;SDS011;18289;51.330;4.946;2023-02-24T08:58:39;11.52;;;3.25;;
31694;SDS011;18289;51.330;4.946;2023-02-24T09:01:17;13.93;;;3.90;;
31694;SDS011;18289;51.330;4.946;2023-02-24T09:03:48;9.15;;;3.30;;
31694;SDS011;18289;51.330;4.946;2023-02-24T09:06:17;10.27;;;3.50;;
31694;SDS011;18289;51.330;4.946;2023-02-24T09:08:49;7.45;;;3.75;;
31694;SDS011;18289;51.330;4.946;2023-02-24T09:11:40;10.93;;;3.33;;
31694;SDS011;18289;51.330;4.946;2023-02-24T09:14:16;10.20;;;3.25;;
31694;SDS011;18289;51.330;4.946;2023-02-24T09:16:48;11.68;;;3.40;;
31694;SDS011;18289;51.330;4.946;2023-02-24T09:19:27;15.43;;;3.72;;
31694;SDS011;18289;51.330;4.946;2023-02-24T09:22:13;10.43;;;3.15;;
31694;SDS011;18289;51.330;4.946;2023-02-24T09:25:05;11.82;;;3.58;;
31694;SDS011;18289;51.330;4.946;2023-02-24T09:27:44;10.82;;;3.15;;
31694;SDS011;18289;51.330;4.946;2023-02-24T09:30:16;7.38;;;3.10;;
31694;SDS011;18289;51.330;4.946;2023-02-24T09:33:06;12.23;;;3.78;;
31694;SDS011;18289;51.330;4.946;2023-02-24T09:36:02;9.52;;;3.28;;
31694;SDS011;18289;51.330;4.946;2023-02-24T09:38:52;9.75;;;3.30;;
31694;SDS011;18289;51.330;4.946;2023-02-24T09:41:36;12.55;;;3.67;;
31694;SDS011;18289;51.330;4.946;2023-02-24T09:44:32;14.70;;;3.58;;
31694;SDS011;18289;51.330;4.946;2023-02-24T09:49:35;11.27;;;3.42;;
31694;SDS011;18289;51.330;4.946;2023-02-24T09:52:28;8.90;;;2.90;;
31694;SDS011;18289;51.330;4.946;2023-02-24T09:57:49;11.10;;;3.35;;
31694;SDS011;18289;51.330;4.946;2023-02-24T10:00:40;11.07;;;3.88;;
31694;SDS011;18289;51.330;4.946;2023-02-24T10:03:30;11.93;;;2.92;;
31694;SDS011;18289;51.330;4.946;2023-02-24T10:06:15;13.35;;;3.53;;
31694;SDS011;18289;51.330;4.946;2023-02-24T10:09:35;7.78;;;2.88;;
31694;SDS011;18289;51.330;4.946;2023-02-24T10:11:41;11.57;;;3.67;;
31694;SDS011;18289;51.330;4.946;2023-02-24T10:14:26;12.93;;;3.38;;
31694;SDS011;18289;51.330;4.946;2023-02-24T10:17:16;11.10;;;3.38;;
31694;SDS011;18289;51.330;4.946;2023-02-24T10:19:54;11.52;;;4.10;;
31694;SDS011;18289;51.330;4.946;2023-02-24T10:30:35;9.20;;;3.30;;
31694;SDS011;18289;51.330;4.946;2023-02-24T10:33:27;13.15;;;4.35;;
31694;SDS011;18289;51.330;4.946;2023-02-24T10:36:09;9.68;;;3.50;;
31694;SDS011;18289;51.330;4.946;2023-02-24T10:38:39;10.75;;;3.50;;
31694;SDS011;18289;51.330;4.946;2023-02-24T10:41:07;9.50;;;3.00;;
31694;SDS011;18289;51.330;4.946;2023-02-24T10:43:33;7.97;;;3.40;;
31694;SDS011;18289;51.330;4.946;2023-02-24T10:46:17;11.02;;;4.53;;
31694;SDS011;18289;51.330;4.946;2023-02-24T10:48:53;8.32;;;3.45;;
31694;SDS011;18289;51.330;4.946;2023-02-24T10:51:37;9.73;;;3.63;;
31694;SDS011;18289;51.330;4.946;2023-02-24T10:54:19;11.33;;;3.73;;
31694;SDS011;18289;51.330;4.946;2023-02-24T10:56:57;9.48;;;4.95;;
31694;SDS011;18289;51.330;4.946;2023-02-24T11:02:33;7.90;;;3.65;;
31694;SDS011;18289;51.330;4.946;2023-02-24T11:05:20;12.90;;;4.70;;
31694;SDS011;18289;51.330;4.946;2023-02-24T11:08:15;10.60;;;4.18;;
31694;SDS011;18289;51.330;4.946;2023-02-24T11:11:34;12.35;;;3.90;;
31694;SDS011;18289;51.330;4.946;2023-02-24T11:14:17;10.75;;;3.88;;
31694;SDS011;18289;51.330;4.946;2023-02-24T11:17:02;8.30;;;3.63;;
31694;SDS011;18289;51.330;4.946;2023-02-24T11:19:49;8.98;;;4.03;;
31694;SDS011;18289;51.330;4.946;2023-02-24T11:22:30;11.32;;;4.28;;
31694;SDS011;18289;51.330;4.946;2023-02-24T11:25:20;12.98;;;5.70;;
31694;SDS011;18289;51.330;4.946;2023-02-24T11:28:01;11.35;;;4.78;;
31694;SDS011;18289;51.330;4.946;2023-02-24T11:34:06;10.70;;;4.60;;
31694;SDS011;18289;51.330;4.946;2023-02-24T11:42:33;10.18;;;4.55;;
31694;SDS011;18289;51.330;4.946;2023-02-24T11:45:11;9.63;;;4.40;;
31694;SDS011;18289;51.330;4.946;2023-02-24T11:48:20;9.45;;;4.20;;
31694;SDS011;18289;51.330;4.946;2023-02-24T11:51:04;13.30;;;4.40;;
31694;SDS011;18289;51.330;4.946;2023-02-24T11:53:50;10.43;;;4.70;;
31694;SDS011;18289;51.330;4.946;2023-02-24T11:56:38;12.07;;;5.90;;
31694;SDS011;18289;51.330;4.946;2023-02-24T12:04:29;11.35;;;4.85;;
31694;SDS011;18289;51.330;4.946;2023-02-24T12:07:34;13.45;;;4.80;;
31694;SDS011;18289;51.330;4.946;2023-02-24T12:10:03;13.47;;;5.47;;
31694;SDS011;18289;51.330;4.946;2023-02-24T12:15:57;11.05;;;4.90;;
31694;SDS011;18289;51.330;4.946;2023-02-24T12:18:38;14.43;;;5.93;;
31694;SDS011;18289;51.330;4.946;2023-02-24T12:21:14;11.30;;;5.43;;
31694;SDS011;18289;51.330;4.946;2023-02-24T12:23:56;8.68;;;5.38;;
31694;SDS011;18289;51.330;4.946;2023-02-24T12:26:24;13.35;;;5.38;;
31694;SDS011;18289;51.330;4.946;2023-02-24T12:39:46;9.57;;;5.30;;
31694;SDS011;18289;51.330;4.946;2023-02-24T12:45:12;13.65;;;6.28;;
31694;SDS011;18289;51.330;4.946;2023-02-24T12:47:53;13.07;;;5.65;;
31694;SDS011;18289;51.330;4.946;2023-02-24T12:50:53;14.02;;;6.05;;
31694;SDS011;18289;51.330;4.946;2023-02-24T12:59:14;12.85;;;5.63;;
31694;SDS011;18289;51.330;4.946;2023-02-24T13:15:15;22.33;;;9.48;;
31694;SDS011;18289;51.330;4.946;2023-02-24T13:17:46;16.10;;;9.73;;
31694;SDS011;18289;51.330;4.946;2023-02-24T13:23:20;11.93;;;6.95;;
31694;SDS011;18289;51.330;4.946;2023-02-24T13:25:53;9.52;;;7.03;;
31694;SDS011;18289;51.330;4.946;2023-02-24T13:28:22;11.75;;;7.47;;
31694;SDS011;18289;51.330;4.946;2023-02-24T13:30:57;15.68;;;7.32;;
31694;SDS011;18289;51.330;4.946;2023-02-24T13:33:34;15.05;;;8.43;;
31694;SDS011;18289;51.330;4.946;2023-02-24T13:36:12;12.07;;;7.85;;
31694;SDS011;18289;51.330;4.946;2023-02-24T13:38:46;10.40;;;8.00;;
31694;SDS011;18289;51.330;4.946;2023-02-24T13:46:22;9.68;;;7.88;;
31694;SDS011;18289;51.330;4.946;2023-02-24T13:48:56;13.07;;;8.70;;
31694;SDS011;18289;51.330;4.946;2023-02-24T13:56:55;14.30;;;11.52;;
31694;SDS011;18289;51.330;4.946;2023-02-24T14:02:52;20.98;;;14.40;;
31694;SDS011;18289;51.330;4.946;2023-02-24T14:05:26;18.35;;;12.68;;
31694;SDS011;18289;51.330;4.946;2023-02-24T14:07:55;19.10;;;14.90;;
31694;SDS011;18289;51.330;4.946;2023-02-24T14:10:23;22.70;;;17.38;;
31694;SDS011;18289;51.330;4.946;2023-02-24T14:15:31;22.40;;;16.58;;
31694;SDS011;18289;51.330;4.946;2023-02-24T14:18:02;19.58;;;16.08;;
31694;SDS011;18289;51.330;4.946;2023-02-24T14:20:33;17.33;;;12.68;;
31694;SDS011;18289;51.330;4.946;2023-02-24T14:23:01;17.65;;;11.30;;
31694;SDS011;18289;51.330;4.946;2023-02-24T14:25:42;15.43;;;11.18;;
31694;SDS011;18289;51.330;4.946;2023-02-24T14:28:12;13.70;;;11.00;;
31694;SDS011;18289;51.330;4.946;2023-02-24T14:30:45;17.33;;;10.73;;
31694;SDS011;18289;51.330;4.946;2023-02-24T14:33:26;16.03;;;11.93;;
31694;SDS011;18289;51.330;4.946;2023-02-24T14:35:54;13.40;;;9.93;;
31694;SDS011;18289;51.330;4.946;2023-02-24T14:40:53;11.57;;;9.45;;
31694;SDS011;18289;51.330;4.946;2023-02-24T14:43:19;14.45;;;9.93;;
31694;SDS011;18289;51.330;4.946;2023-02-24T14:51:41;16.67;;;10.13;;
31694;SDS011;18289;51.330;4.946;2023-02-24T14:54:06;13.05;;;8.63;;
31694;SDS011;18289;51.330;4.946;2023-02-24T14:56:45;15.25;;;9.65;;
31694;SDS011;18289;51.330;4.946;2023-02-24T14:59:23;19.50;;;10.18;;
31694;SDS011;18289;51.330;4.946;2023-02-24T15:04:48;19.35;;;11.07;;
31694;SDS011;18289;51.330;4.946;2023-02-24T15:07:34;15.63;;;10.25;;
31694;SDS011;18289;51.330;4.946;2023-02-24T15:12:48;17.38;;;10.23;;
31694;SDS011;18289;51.330;4.946;2023-02-24T15:15:19;16.80;;;9.57;;
31694;SDS011;18289;51.330;4.946;2023-02-24T15:17:58;16.95;;;9.60;;
31694;SDS011;18289;51.330;4.946;2023-02-24T15:20:35;16.50;;;10.25;;
31694;SDS011;18289;51.330;4.946;2023-02-24T15:23:03;16.20;;;9.45;;
31694;SDS011;18289;51.330;4.946;2023-02-24T15:25:47;15.68;;;7.47;;
31694;SDS011;18289;51.330;4.946;2023-02-24T15:28:28;12.75;;;7.30;;
31694;SDS011;18289;51.330;4.946;2023-02-24T15:33:37;15.75;;;7.30;;
31694;SDS011;18289;51.330;4.946;2023-02-24T15:36:08;15.45;;;6.40;;
31694;SDS011;18289;51.330;4.946;2023-02-24T15:38:43;16.73;;;6.90;;
31694;SDS011;18289;51.330;4.946;2023-02-24T15:41:12;12.55;;;5.95;;
31694;SDS011;18289;51.330;4.946;2023-02-24T15:46:55;15.02;;;5.97;;
31694;SDS011;18289;51.330;4.946;2023-02-24T15:52:08;19.23;;;7.32;;
31694;SDS011;18289;51.330;4.946;2023-02-24T15:54:34;16.38;;;7.20;;
31694;SDS011;18289;51.330;4.946;2023-02-24T15:57:21;17.50;;;5.93;;
31694;SDS011;18289;51.330;4.946;2023-02-24T15:59:47;14.93;;;5.80;;
31694;SDS011;18289;51.330;4.946;2023-02-24T16:02:14;13.05;;;4.45;;
31694;SDS011;18289;51.330;4.946;2023-02-24T16:04:43;16.58;;;4.15;;
31694;SDS011;18289;51.330;4.946;2023-02-24T16:07:10;11.95;;;3.63;;
31694;SDS011;18289;51.330;4.946;2023-02-24T16:09:42;7.38;;;2.65;;
31694;SDS011;18289;51.330;4.946;2023-02-24T16:12:11;12.98;;;4.30;;
31694;SDS011;18289;51.330;4.946;2023-02-24T16:14:40;8.68;;;2.78;;
31694;SDS011;18289;51.330;4.946;2023-02-24T16:17:08;12.07;;;3.72;;
31694;SDS011;18289;51.330;4.946;2023-02-24T16:19:52;12.75;;;3.70;;
31694;SDS011;18289;51.330;4.946;2023-02-24T16:22:20;15.90;;;3.30;;
31694;SDS011;18289;51.330;4.946;2023-02-24T16:24:47;13.20;;;3.22;;
31694;SDS011;18289;51.330;4.946;2023-02-24T16:27:14;13.95;;;3.90;;
31694;SDS011;18289;51.330;4.946;2023-02-24T16:29:41;9.95;;;3.70;;
31694;SDS011;18289;51.330;4.946;2023-02-24T16:32:10;11.43;;;3.92;;
31694;SDS011;18289;51.330;4.946;2023-02-24T16:34:37;13.93;;;3.30;;
31694;SDS011;18289;51.330;4.946;2023-02-24T16:37:03;13.90;;;4.53;;
31694;SDS011;18289;51.330;4.946;2023-02-24T16:39:34;14.52;;;4.20;;
31694;SDS011;18289;51.330;4.946;2023-02-24T16:42:00;15.98;;;3.80;;
31694;SDS011;18289;51.330;4.946;2023-02-24T16:44:30;20.08;;;4.55;;
31694;SDS011;18289;51.330;4.946;2023-02-24T16:46:55;15.18;;;3.40;;
31694;SDS011;18289;51.330;4.946;2023-02-24T16:49:21;14.18;;;4.28;;
31694;SDS011;18289;51.330;4.946;2023-02-24T16:51:48;13.60;;;4.20;;
31694;SDS011;18289;51.330;4.946;2023-02-24T16:54:13;23.65;;;4.75;;
31694;SDS011;18289;51.330;4.946;2023-02-24T16:56:39;14.20;;;3.60;;
31694;SDS011;18289;51.330;4.946;2023-02-24T16:59:04;13.85;;;3.67;;
31694;SDS011;18289;51.330;4.946;2023-02-24T17:01:30;15.07;;;3.83;;
31694;SDS011;18289;51.330;4.946;2023-02-24T17:03:56;16.50;;;5.40;;
31694;SDS011;18289;51.330;4.946;2023-02-24T17:06:22;11.80;;;3.35;;
31694;SDS011;18289;51.330;4.946;2023-02-24T17:08:48;13.13;;;3.50;;
31694;SDS011;18289;51.330;4.946;2023-02-24T17:11:15;15.32;;;3.78;;
31694;SDS011;18289;51.330;4.946;2023-02-24T17:13:48;10.48;;;3.00;;
31694;SDS011;18289;51.330;4.946;2023-02-24T17:16:14;15.00;;;3.08;;
31694;SDS011;18289;51.330;4.946;2023-02-24T17:18:40;10.45;;;2.83;;
31694;SDS011;18289;51.330;4.946;2023-02-24T17:21:05;8.88;;;2.47;;
31694;SDS011;18289;51.330;4.946;2023-02-24T17:23:31;8.43;;;2.50;;
31694;SDS011;18289;51.330;4.946;2023-02-24T17:25:58;11.77;;;2.80;;
31694;SDS011;18289;51.330;4.946;2023-02-24T17:28:25;7.90;;;2.63;;
31694;SDS011;18289;51.330;4.946;2023-02-24T17:30:51;9.65;;;2.20;;
31694;SDS011;18289;51.330;4.946;2023-02-24T17:33:17;6.60;;;2.10;;
31694;SDS011;18289;51.330;4.946;2023-02-24T17:35:43;16.25;;;2.50;;
31694;SDS011;18289;51.330;4.946;2023-02-24T17:38:14;9.68;;;2.70;;
31694;SDS011;18289;51.330;4.946;2023-02-24T17:40:42;21.70;;;7.07;;
31694;SDS011;18289;51.330;4.946;2023-02-24T17:43:08;25.10;;;11.05;;
31694;SDS011;18289;51.330;4.946;2023-02-24T17:45:35;11.20;;;4.70;;
31694;SDS011;18289;51.330;4.946;2023-02-24T17:48:01;14.55;;;4.63;;
31694;SDS011;18289;51.330;4.946;2023-02-24T17:50:26;18.83;;;8.27;;
31694;SDS011;18289;51.330;4.946;2023-02-24T17:52:52;18.20;;;6.90;;
31694;SDS011;18289;51.330;4.946;2023-02-24T17:55:18;13.48;;;7.40;;
31694;SDS011;18289;51.330;4.946;2023-02-24T17:57:44;15.13;;;6.88;;
31694;SDS011;18289;51.330;4.946;2023-02-24T18:00:10;16.00;;;8.10;;
31694;SDS011;18289;51.330;4.946;2023-02-24T18:02:36;16.27;;;6.07;;
31694;SDS011;18289;51.330;4.946;2023-02-24T18:05:02;14.15;;;5.38;;
31694;SDS011;18289;51.330;4.946;2023-02-24T18:07:28;11.32;;;4.07;;